Time;durP1;ratioP1;P1;durP2;ratioP2;P2;SDS_P1;SDS_P2;PMS_P1;PMS_P2;Temp;Humidity;BMP_temperature;BMP_pressure;BME280_temperature;BME280_humidity;BME280_pressure;Samples;Min_cycle;Max_cycle;Signal;HPM_P1;HPM_P2
2022/04/04 00:03:13;;;;;;;11.93;5.60;;;;;;;2.31;51.91;99906.89;739180;1155;115227;-73
2022/04/04 00:18:16;;;;;;;14.73;5.23;;;;;;;2.19;51.61;99887.75;739498;1155;114230;-71
2022/04/04 00:33:18;;;;;;;13.03;5.90;;;;;;;2.14;51.14;99877.66;739659;1154;115459;-72
2022/04/04 00:48:20;;;;;;;20.27;6.77;;;;;;;2.24;51.66;99846.86;739311;1155;115193;-72
2022/04/04 01:03:22;;;;;;;16.25;6.90;;;;;;;2.36;51.92;99831.52;739375;1155;115265;-72
2022/04/04 01:18:25;;;;;;;9.98;5.53;;;;;;;2.55;52.67;99810.49;739367;1155;115267;-70
2022/04/04 01:33:27;;;;;;;13.80;6.00;;;;;;;2.95;53.42;99784.67;739577;1155;115198;-72
2022/04/04 01:48:37;;;;;;;100.10;25.40;;;;;;;3.11;52.90;99779.33;739110;1155;115370;-71
2022/04/04 02:03:40;;;;;;;95.85;22.98;;;;;;;3.15;53.47;99752.28;739846;1154;115456;-71
2022/04/04 02:18:42;;;;;;;12.68;6.88;;;;;;;3.31;54.86;99739.13;739517;1155;115546;-70
2022/04/04 02:33:44;;;;;;;17.50;5.88;;;;;;;3.35;55.50;99737.98;739106;1154;115493;-69
2022/04/04 02:48:46;;;;;;;8.03;4.98;;;;;;;3.37;57.34;99741.33;739468;1155;115447;-71
2022/04/04 03:03:49;;;;;;;9.40;5.10;;;;;;;3.33;58.27;99725.13;741445;1154;114564;-69
2022/04/04 03:18:54;;;;;;;10.05;4.65;;;;;;;3.42;57.99;99713.33;738952;1152;115031;-69
2022/04/04 03:33:56;;;;;;;7.18;4.98;;;;;;;3.44;60.50;99721.81;740204;1152;115393;-70
2022/04/04 03:48:58;;;;;;;10.50;5.18;;;;;;;2.46;66.99;99703.98;739560;1153;115128;-70
2022/04/04 04:04:00;;;;;;;12.68;5.63;;;;;;;2.34;70.69;99691.83;739330;1154;115292;-69
2022/04/04 04:19:02;;;;;;;13.75;5.85;;;;;;;2.34;70.57;99676.30;739513;1153;114750;-70
2022/04/04 04:34:04;;;;;;;11.77;6.03;;;;;;;2.33;70.29;99680.63;739536;1152;115476;-70
2022/04/04 04:49:07;;;;;;;15.30;7.20;;;;;;;2.57;72.41;99666.22;739027;1154;114323;-70
2022/04/04 05:04:09;;;;;;;19.70;8.60;;;;;;;2.89;71.40;99666.72;739426;1154;113973;-77
2022/04/04 05:19:19;;;;;;;17.55;10.08;;;;;;;3.11;71.83;99662.70;739328;1153;114749;-76
2022/04/04 05:34:28;;;;;;;27.23;14.15;;;;;;;3.33;71.65;99662.09;739537;1153;114760;-76
2022/04/04 05:49:34;;;;;;;158.18;49.98;;;;;;;3.51;72.38;99649.64;739793;1155;115005;-71
2022/04/04 06:04:36;;;;;;;49.80;27.78;;;;;;;3.75;74.11;99639.31;739980;1153;115572;-77
2022/04/04 06:19:39;;;;;;;18.55;11.80;;;;;;;4.07;73.45;99623.23;739575;1153;115714;-79
2022/04/04 06:34:41;;;;;;;19.13;13.10;;;;;;;4.25;74.27;99620.24;739646;1153;114177;-75
2022/04/04 06:49:43;;;;;;;15.47;8.10;;;;;;;4.42;76.67;99614.67;740380;1155;114094;-75
2022/04/04 07:04:45;;;;;;;14.07;8.13;;;;;;;4.57;77.18;99602.31;739412;1153;115243;-75
2022/04/04 07:19:47;;;;;;;13.17;7.17;;;;;;;4.73;80.65;99604.61;739824;1153;114015;-84
2022/04/04 07:34:50;;;;;;;9.87;5.83;;;;;;;5.11;78.34;99580.09;740120;1155;115558;-84
2022/04/04 07:49:52;;;;;;;18.53;8.58;;;;;;;5.65;76.90;99541.28;740188;1152;114710;-83
2022/04/04 08:04:54;;;;;;;8.33;5.48;;;;;;;6.64;73.80;99530.72;739823;1155;113920;-85
2022/04/04 08:19:56;;;;;;;12.73;9.35;;;;;;;6.80;70.95;99528.46;739939;1153;114331;-73
2022/04/04 08:34:59;;;;;;;24.40;10.78;;;;;;;7.32;68.39;99510.15;741065;1154;115353;-78
2022/04/04 08:50:02;;;;;;;20.27;8.00;;;;;;;7.17;67.73;99498.42;741343;1154;114164;-74
2022/04/04 09:05:06;;;;;;;10.75;5.95;;;;;;;7.73;66.81;99483.95;740474;1153;114956;-77
2022/04/04 09:20:10;;;;;;;30.88;15.73;;;;;;;8.03;65.11;99458.67;739976;1155;113944;-71
2022/04/04 09:35:18;;;;;;;14.00;6.33;;;;;;;8.47;63.35;99455.59;740127;1155;114119;-72
2022/04/04 09:50:39;;;;;;;12.73;5.63;;;;;;;9.58;59.18;99418.12;739776;1153;113486;-70
2022/04/04 10:05:53;;;;;;;7.97;3.63;;;;;;;10.21;56.15;99363.90;740540;1153;115409;-76
2022/04/04 10:20:57;;;;;;;7.35;3.58;;;;;;;10.07;51.58;99353.02;739959;1153;115146;-72
2022/04/04 10:36:09;;;;;;;7.57;4.00;;;;;;;10.49;50.72;99328.67;739787;1153;115314;-76
2022/04/04 10:51:17;;;;;;;11.05;3.98;;;;;;;11.26;49.49;99301.45;739750;1155;115094;-75
2022/04/04 11:22:04;;;;;;;15.10;4.05;;;;;;;11.20;46.55;99254.03;740233;1152;114788;-76
2022/04/04 11:37:10;;;;;;;36.47;8.07;;;;;;;11.12;47.21;99232.03;743298;1155;114020;-77
2022/04/04 11:52:18;;;;;;;45.45;12.30;;;;;;;11.67;45.27;99192.91;740371;1152;114859;-72
2022/04/04 12:07:20;;;;;;;27.65;5.75;;;;;;;11.98;44.19;99177.22;739313;1153;115546;-71
2022/04/04 12:37:56;;;;;;;26.83;5.00;;;;;;;11.77;42.82;99095.48;739305;1155;114151;-74
2022/04/04 12:53:00;;;;;;;21.45;4.10;;;;;;;11.27;43.51;99058.94;739282;1152;114628;-73
2022/04/04 13:08:03;;;;;;;11.55;4.23;;;;;;;11.56;43.25;99027.78;739353;1153;115008;-74
2022/04/04 13:23:08;;;;;;;23.78;4.45;;;;;;;10.96;43.44;98996.70;739773;1153;115481;-76
2022/04/04 13:38:10;;;;;;;22.67;5.50;;;;;;;11.46;42.51;98950.04;739102;1153;114008;-74
2022/04/04 13:53:12;;;;;;;23.78;7.88;;;;;;;11.61;42.63;98886.25;739013;1153;114976;-76
2022/04/04 14:08:14;;;;;;;23.70;4.63;;;;;;;11.39;42.05;98865.09;739867;1152;115840;-75
2022/04/04 14:23:23;;;;;;;17.43;5.00;;;;;;;10.96;41.75;98841.08;739959;1153;116123;-75
2022/04/04 14:38:27;;;;;;;43.90;7.43;;;;;;;10.60;41.74;98831.11;740166;1153;114172;-77
2022/04/04 14:53:29;;;;;;;25.48;6.68;;;;;;;10.44;43.90;98805.78;739745;1154;115352;-76
2022/04/04 15:08:40;;;;;;;51.55;9.38;;;;;;;10.11;44.34;98769.98;739269;1153;115475;-76
2022/04/04 15:23:44;;;;;;;43.50;9.53;;;;;;;9.71;43.95;98710.68;739765;1155;114620;-75
2022/04/04 15:39:11;;;;;;;44.75;7.33;;;;;;;9.78;44.75;98675.80;740022;1154;115454;-75
2022/04/04 15:54:15;;;;;;;102.00;16.68;;;;;;;9.49;44.40;98655.45;738928;1152;115384;-71
2022/04/04 16:09:17;;;;;;;80.92;13.63;;;;;;;9.58;43.76;98622.19;739821;1153;115925;-71
2022/04/04 16:24:20;;;;;;;69.20;11.50;;;;;;;9.40;44.75;98612.77;739064;1153;115510;-72
2022/04/04 16:39:22;;;;;;;55.18;10.25;;;;;;;9.18;44.29;98582.09;739699;1155;114879;-72
2022/04/04 16:54:24;;;;;;;58.58;12.40;;;;;;;9.12;44.50;98550.38;739414;1153;115537;-70
2022/04/04 17:09:27;;;;;;;39.95;8.73;;;;;;;9.09;44.83;98529.80;741004;1153;115022;-71
2022/04/04 17:24:29;;;;;;;63.38;9.68;;;;;;;8.87;45.95;98526.09;739087;1152;115292;-71
2022/04/04 17:39:31;;;;;;;72.63;10.68;;;;;;;8.65;47.45;98507.48;739498;1153;115660;-73
2022/04/04 17:54:34;;;;;;;71.83;10.58;;;;;;;8.33;48.79;98513.55;739704;1153;114893;-72
2022/04/04 18:09:37;;;;;;;75.05;10.25;;;;;;;7.82;53.16;98490.98;740143;1155;114111;-77
2022/04/04 18:24:39;;;;;;;53.25;9.95;;;;;;;6.91;58.08;98497.71;739828;1153;114687;-77
2022/04/04 18:39:43;;;;;;;44.60;9.33;;;;;;;6.55;64.05;98469.19;740298;1153;114133;-77
2022/04/04 18:54:49;;;;;;;29.35;8.80;;;;;;;6.09;67.17;98434.70;739793;1152;114529;-77
2022/04/04 19:09:53;;;;;;;28.33;7.97;;;;;;;6.00;68.61;98389.56;740153;1153;114696;-77
2022/04/04 19:24:56;;;;;;;28.73;7.25;;;;;;;5.91;70.26;98364.41;740524;1153;113894;-75
2022/04/04 19:39:59;;;;;;;40.23;9.35;;;;;;;5.68;72.41;98351.90;740012;1153;113924;-78
2022/04/04 19:55:02;;;;;;;19.53;7.00;;;;;;;5.25;76.15;98348.28;740200;1155;114819;-78
2022/04/04 20:10:06;;;;;;;29.63;10.15;;;;;;;4.62;84.64;98287.58;740683;1153;115510;-78
2022/04/04 20:25:09;;;;;;;36.05;13.23;;;;;;;3.99;93.65;98268.34;740372;1154;114261;-78
2022/04/04 20:40:14;;;;;;;37.43;12.15;;;;;;;4.13;94.64;98239.32;740945;1154;114645;-77
2022/04/04 20:55:17;;;;;;;32.03;12.20;;;;;;;4.18;98.38;98204.33;740323;1152;114153;-73
2022/04/04 21:10:19;;;;;;;20.95;10.00;;;;;;;4.28;98.29;98164.37;740149;1154;115193;-73
2022/04/04 21:25:21;;;;;;;23.53;10.50;;;;;;;4.24;98.57;98170.02;740695;1154;114927;-72
2022/04/04 21:40:24;;;;;;;13.45;8.90;;;;;;;4.26;97.39;98160.28;740267;1153;115405;-74
2022/04/04 21:55:26;;;;;;;18.85;9.35;;;;;;;4.16;98.40;98104.06;739993;1154;114618;-72
2022/04/04 22:10:28;;;;;;;13.93;8.73;;;;;;;4.09;100.00;98091.83;740057;1155;114852;-74
2022/04/04 22:25:31;;;;;;;13.27;9.23;;;;;;;4.15;100.00;98065.30;740594;1153;115356;-70
2022/04/04 22:40:33;;;;;;;16.43;10.77;;;;;;;4.16;100.00;98049.56;739247;1155;114892;-70
2022/04/04 22:55:36;;;;;;;17.00;10.43;;;;;;;4.42;100.00;98025.45;739081;1155;115861;-70
2022/04/04 23:10:38;;;;;;;13.83;9.57;;;;;;;4.49;100.00;98016.08;739237;1155;115637;-71
2022/04/04 23:25:40;;;;;;;18.75;11.38;;;;;;;4.63;100.00;98006.09;738860;1153;115496;-69
2022/04/04 23:40:42;;;;;;;16.63;9.88;;;;;;;4.76;100.00;97993.51;738860;1153;115925;-69
2022/04/04 23:55:44;;;;;;;17.13;11.15;;;;;;;4.87;100.00;97994.22;738879;1155;115316;-69
